To NAV CANADA Home Page Login to a new session Search on AWWS site Disclaimer Vers la page française équivalente Tips FAQ What's new on the site To the Forecasts and Observations / NOTAM section To "File a Flight Plan" website Publications and other links Update of the User's profile FIC Telephone Numbers My Weather Data Folder Route Weather Data Regional Weather Data Local Weather Data To the Forecasts and Observations / NOTAM section
Request Generated 05/28/2022 at 23:56:07 UTC . Weather information available at that time is displayed.

METAR/TAF

If you find any discrepancies between the coded METAR/TAF and the plain language METAR/TAF please use the coded METAR/TAF. LWIS bulletins are not decoded in plain language.

TORONTO/LESTER B. PEARSON INTL/ON    

METAR CYYZ 282300Z 26005KT 230V300 15SM FEW057 SCT180 BKN250 21/11 A2987 RMK CU C2CI3 SLP117 DENSITY ALT 1500FT=
METAR
LOCATION
CYYZ - TORONTO/LESTER B. PEARSON INTL/ON
DATE - TIME
28 MAY 2022 - 2300 UTC
WIND
260 TRUE @ 5  KNOTS
VARIATION
230 <-> 300  DEG
VISIBILITY
15 STAT.  MILES
RUNWAY VISUAL RANGE
WEATHER
CLOUDINESS
FEW CLOUDS (1/8 - 2/8) 5700  FT
SCATTERED CLOUDS (3/8 - 4/8) 18000  FT
BROKEN CLOUDS (5/8 - 7/8) 25000  FT
TEMP / DEWPOINT
21 C / 11 C
ALTIMETER
29.87 IN HG
RECENT WEATHER
WIND SHEAR

METAR CYYZ 282200Z 30003KT 270V010 15SM SCT050 BKN250 22/10 A2986 RMK CF3CI2 SL 14 DENSITY ALT 1600FT=
METAR
LOCATION
CYYZ - TORONTO/LESTER B. PEARSON INTL/ON
DATE - TIME
28 MAY 2022 - 2200 UTC
WIND
300 TRUE @ 3  KNOTS
VARIATION
270 <-> 10  DEG
VISIBILITY
15 STAT.  MILES
RUNWAY VISUAL RANGE
WEATHER
CLOUDINESS
SCATTERED CLOUDS (3/8 - 4/8) 5000  FT
BROKEN CLOUDS (5/8 - 7/8) 25000  FT
TEMP / DEWPOINT
22 C / 10 C
ALTIMETER
29.86 IN HG
RECENT WEATHER
WIND SHEAR

METAR CYYZ 282100Z 32003KT 220V020 15SM SCT050 BKN250 22/10 A2986 RMK CF3CI2 SL 14 DENSITY ALT 1700FT=
METAR
LOCATION
CYYZ - TORONTO/LESTER B. PEARSON INTL/ON
DATE - TIME
28 MAY 2022 - 2100 UTC
WIND
320 TRUE @ 3  KNOTS
VARIATION
220 <-> 20  DEG
VISIBILITY
15 STAT.  MILES
RUNWAY VISUAL RANGE
WEATHER
CLOUDINESS
SCATTERED CLOUDS (3/8 - 4/8) 5000  FT
BROKEN CLOUDS (5/8 - 7/8) 25000  FT
TEMP / DEWPOINT
22 C / 10 C
ALTIMETER
29.86 IN HG
RECENT WEATHER
WIND SHEAR

Your time UTC time
Weather data provided by Environment Canada and NAV CANADA